Time;durP1;ratioP1;P1;durP2;ratioP2;P2;SDS_P1;SDS_P2;PMS_P1;PMS_P2;Temp;Humidity;BMP_temperature;BMP_pressure;BME280_temperature;BME280_humidity;BME280_pressure;Samples;Min_cycle;Max_cycle;Signal;HPM_P1;HPM_P2
2021/08/13 00:00:20;;;;;;;5.68;3.40;;;18.20;68.30;;;;;;5055135;28;20060;-82
2021/08/13 00:02:46;;;;;;;5.85;3.25;;;18.10;68.70;;;;;;5037066;28;20029;-82
2021/08/13 00:05:12;;;;;;;4.75;3.10;;;18.00;68.90;;;;;;5054251;28;20067;-82
2021/08/13 00:07:38;;;;;;;4.55;3.03;;;18.00;69.10;;;;;;5054715;28;20025;-82
2021/08/13 00:10:05;;;;;;;4.97;3.22;;;17.90;69.20;;;;;;5037328;28;20035;-82
2021/08/13 00:12:31;;;;;;;6.72;3.40;;;17.80;69.30;;;;;;5036866;28;20033;-82
2021/08/13 00:14:57;;;;;;;5.35;3.25;;;17.80;69.50;;;;;;5054622;28;20102;-82
2021/08/13 00:17:27;;;;;;;5.60;3.40;;;17.80;69.70;;;;;;5054698;28;20119;-83
2021/08/13 00:19:54;;;;;;;4.87;3.13;;;17.80;70.00;;;;;;5036776;28;20032;-83
2021/08/13 00:22:20;;;;;;;5.07;3.40;;;17.80;69.90;;;;;;5055199;28;20029;-83
2021/08/13 00:24:46;;;;;;;5.07;3.33;;;17.80;69.80;;;;;;5036642;28;20068;-82
2021/08/13 00:27:12;;;;;;;5.10;3.10;;;17.80;70.00;;;;;;5036432;28;20056;-82
2021/08/13 00:29:38;;;;;;;5.60;3.47;;;17.90;70.20;;;;;;5054570;28;20482;-82
2021/08/13 00:32:04;;;;;;;5.88;3.40;;;17.90;70.10;;;;;;5036402;28;20032;-81
2021/08/13 00:34:29;;;;;;;5.15;3.08;;;17.90;70.00;;;;;;5054070;28;20152;-81
2021/08/13 00:36:55;;;;;;;4.63;2.83;;;17.90;69.70;;;;;;5036360;28;20040;-81
2021/08/13 00:39:21;;;;;;;3.70;2.50;;;18.00;69.70;;;;;;5036232;28;20456;-82
2021/08/13 00:41:46;;;;;;;5.88;2.85;;;18.10;69.50;;;;;;5054138;28;20051;-82
2021/08/13 00:44:12;;;;;;;4.53;2.65;;;18.10;69.30;;;;;;5053757;28;20545;-83
2021/08/13 00:46:38;;;;;;;5.75;3.03;;;18.10;69.60;;;;;;5053639;28;20052;-83
2021/08/13 00:49:03;;;;;;;5.40;2.97;;;18.10;69.30;;;;;;5053717;28;20442;-82
2021/08/13 00:51:29;;;;;;;4.28;2.75;;;18.10;69.30;;;;;;5053851;28;20032;-82
2021/08/13 00:53:55;;;;;;;5.50;2.88;;;18.20;69.20;;;;;;5036050;28;20028;-82
2021/08/13 00:56:24;;;;;;;3.92;2.70;;;18.20;69.10;;;;;;5054020;28;20100;-83
2021/08/13 00:58:50;;;;;;;4.10;2.80;;;18.30;69.30;;;;;;5053969;28;20036;-82
2021/08/13 01:01:16;;;;;;;6.07;3.33;;;18.30;69.30;;;;;;5053788;28;20025;-82
2021/08/13 01:03:41;;;;;;;4.05;2.80;;;18.30;69.30;;;;;;5035885;28;20119;-82
2021/08/13 01:06:16;;;;;;;5.13;3.13;;;18.40;69.30;;;;;;5035943;28;20064;-82
2021/08/13 01:08:43;;;;;;;5.55;2.80;;;18.40;69.10;;;;;;5053938;28;20056;-83
2021/08/13 01:11:30;;;;;;;5.47;2.85;;;18.40;68.90;;;;;;5054060;28;20043;-82
2021/08/13 01:14:17;;;;;;;4.13;3.00;;;18.30;69.10;;;;;;5053449;28;20047;-81
2021/08/13 01:16:46;;;;;;;4.72;2.90;;;18.30;68.90;;;;;;5035763;28;20025;-82
2021/08/13 01:19:27;;;;;;;4.87;3.10;;;18.30;68.90;;;;;;5035923;28;20464;-83
2021/08/13 01:22:00;;;;;;;4.22;2.90;;;18.30;69.70;;;;;;5036529;28;20038;-82
2021/08/13 01:24:30;;;;;;;5.15;2.65;;;18.30;69.10;;;;;;5035590;28;20050;-82
2021/08/13 01:27:05;;;;;;;3.92;2.63;;;18.30;68.90;;;;;;5035645;28;20035;-82
2021/08/13 01:29:54;;;;;;;5.53;3.00;;;18.30;69.30;;;;;;5053263;28;20029;-82
2021/08/13 01:32:44;;;;;;;4.93;2.50;;;18.30;69.00;;;;;;5053489;28;20021;-82
2021/08/13 01:35:18;;;;;;;4.43;3.10;;;18.30;69.30;;;;;;5053455;28;20025;-82
2021/08/13 01:37:48;;;;;;;5.65;2.95;;;18.30;69.20;;;;;;5035791;28;20033;-82
2021/08/13 01:40:16;;;;;;;3.90;2.85;;;18.30;69.00;;;;;;5042549;28;20035;-82
2021/08/13 01:42:44;;;;;;;3.65;2.67;;;18.20;68.90;;;;;;5073474;28;20471;-82
2021/08/13 01:45:12;;;;;;;4.40;2.90;;;18.20;69.10;;;;;;5055267;28;20041;-82
2021/08/13 01:47:40;;;;;;;4.63;3.10;;;18.20;69.70;;;;;;5073235;28;20029;-82
2021/08/13 01:50:06;;;;;;;5.07;3.08;;;18.10;70.00;;;;;;5073457;28;20547;-81
2021/08/13 01:52:33;;;;;;;5.18;3.17;;;18.10;70.40;;;;;;5055785;28;20024;-82
2021/08/13 01:54:59;;;;;;;6.53;3.28;;;18.00;71.20;;;;;;5073455;28;20043;-82
2021/08/13 01:57:25;;;;;;;5.63;3.10;;;17.90;71.00;;;;;;5055541;28;20028;-82
2021/08/13 01:59:51;;;;;;;5.55;3.30;;;17.90;71.20;;;;;;5073152;28;20024;-82
2021/08/13 02:02:18;;;;;;;6.03;3.40;;;17.80;71.40;;;;;;5055846;28;20086;-81
2021/08/13 02:04:45;;;;;;;4.70;3.20;;;17.70;71.80;;;;;;5072903;28;20033;-82
2021/08/13 02:07:13;;;;;;;4.82;3.05;;;17.60;71.70;;;;;;5056855;28;20025;-82
2021/08/13 02:09:39;;;;;;;4.18;3.00;;;17.60;72.00;;;;;;5059543;28;20475;-82
2021/08/13 02:12:05;;;;;;;7.15;3.42;;;17.50;72.10;;;;;;5076810;28;20025;-82
2021/08/13 02:14:32;;;;;;;3.58;2.53;;;17.50;72.20;;;;;;5076060;28;20048;-82
2021/08/13 02:17:00;;;;;;;4.15;2.90;;;17.40;72.10;;;;;;5076626;28;20478;-82
2021/08/13 02:19:36;;;;;;;4.47;3.08;;;17.40;72.30;;;;;;5059047;28;20062;-82
2021/08/13 02:22:02;;;;;;;3.88;2.72;;;17.40;72.60;;;;;;5053229;28;20348;-83
2021/08/13 02:24:28;;;;;;;4.47;3.00;;;17.30;72.50;;;;;;5038732;28;20044;-82
2021/08/13 02:26:55;;;;;;;5.15;2.95;;;17.30;72.60;;;;;;5038865;28;20387;-83
2021/08/13 02:29:24;;;;;;;4.93;3.45;;;17.30;72.70;;;;;;5056992;28;20029;-83
2021/08/13 02:31:50;;;;;;;7.82;3.60;;;17.30;72.90;;;;;;5038864;28;20036;-85
2021/08/13 02:34:15;;;;;;;4.75;3.10;;;17.40;72.80;;;;;;5039481;28;20036;-85
2021/08/13 02:36:47;;;;;;;4.45;2.90;;;17.40;72.70;;;;;;5056914;28;20096;-84
2021/08/13 02:39:32;;;;;;;5.00;3.17;;;17.30;72.80;;;;;;5038935;28;20029;-85
2021/08/13 02:42:01;;;;;;;5.40;3.22;;;17.30;73.90;;;;;;5039105;28;20025;-85
2021/08/13 02:44:31;;;;;;;5.07;3.30;;;17.30;72.70;;;;;;5038896;28;20070;-85
2021/08/13 02:47:06;;;;;;;6.38;3.20;;;17.40;73.10;;;;;;5057107;28;20040;-85
2021/08/13 02:49:34;;;;;;;4.32;2.95;;;17.40;73.10;;;;;;5056511;28;20029;-84
2021/08/13 02:52:05;;;;;;;5.22;3.00;;;17.40;72.70;;;;;;5056410;28;20033;-84
2021/08/13 02:54:33;;;;;;;6.55;3.22;;;17.40;73.00;;;;;;5038717;28;20029;-85
2021/08/13 02:57:02;;;;;;;5.82;3.13;;;17.40;73.00;;;;;;5055948;28;20024;-84
2021/08/13 02:59:31;;;;;;;5.63;3.35;;;17.40;73.10;;;;;;5056508;28;20103;-82
2021/08/13 03:02:00;;;;;;;5.93;3.10;;;17.30;73.20;;;;;;5056596;28;20117;-82
2021/08/13 03:04:29;;;;;;;7.88;3.58;;;17.30;73.20;;;;;;5055830;28;20043;-83
2021/08/13 03:06:55;;;;;;;5.13;3.33;;;17.30;73.40;;;;;;5038818;28;20027;-84
2021/08/13 03:09:23;;;;;;;5.35;3.30;;;17.40;73.30;;;;;;5056045;28;20029;-84
2021/08/13 03:11:52;;;;;;;5.32;3.10;;;17.40;73.40;;;;;;5055848;28;20108;-85
2021/08/13 03:14:20;;;;;;;4.85;3.13;;;17.40;73.40;;;;;;5055832;28;20071;-85
2021/08/13 03:16:48;;;;;;;5.85;3.33;;;17.40;73.40;;;;;;5056509;28;20033;-84
2021/08/13 03:19:14;;;;;;;4.68;2.95;;;17.40;73.50;;;;;;5055988;28;20146;-84
2021/08/13 03:21:42;;;;;;;4.80;3.40;;;17.40;73.60;;;;;;5055530;28;20043;-83
2021/08/13 03:24:07;;;;;;;5.70;3.22;;;17.40;73.80;;;;;;5055724;28;20037;-83
2021/08/13 03:26:33;;;;;;;5.43;3.10;;;17.40;73.80;;;;;;5055876;28;20032;-84
2021/08/13 03:28:59;;;;;;;4.40;2.92;;;17.40;73.90;;;;;;5055711;28;20036;-83
2021/08/13 03:32:01;;;;;;;5.20;3.30;;;17.40;73.80;;;;;;5056061;28;20024;-85
2021/08/13 03:34:27;;;;;;;5.10;3.08;;;17.40;75.40;;;;;;5006609;28;20049;-84
2021/08/13 03:36:53;;;;;;;6.20;3.60;;;17.50;73.60;;;;;;5054810;28;20021;-84
2021/08/13 03:39:18;;;;;;;5.80;3.20;;;17.40;73.90;;;;;;5037572;28;20028;-84
2021/08/13 03:41:44;;;;;;;4.95;3.40;;;17.50;73.80;;;;;;5037621;28;20040;-83
2021/08/13 03:44:10;;;;;;;5.55;3.30;;;17.50;73.60;;;;;;5055355;28;20043;-84
2021/08/13 03:46:35;;;;;;;5.57;3.50;;;17.50;73.70;;;;;;5055358;28;20367;-84
2021/08/13 03:49:01;;;;;;;7.07;3.55;;;17.50;73.70;;;;;;5055661;28;20056;-83
2021/08/13 03:51:29;;;;;;;5.35;3.53;;;17.60;73.80;;;;;;5055580;28;20025;-84
2021/08/13 03:53:54;;;;;;;5.15;3.42;;;17.60;73.90;;;;;;5055486;28;20103;-84
2021/08/13 03:56:20;;;;;;;4.95;3.00;;;17.60;73.70;;;;;;5037497;28;20112;-83
2021/08/13 03:58:46;;;;;;;5.93;3.08;;;17.70;73.70;;;;;;5037446;28;20024;-84
2021/08/13 04:01:11;;;;;;;4.78;3.10;;;17.70;73.60;;;;;;5054960;28;20471;-84
2021/08/13 04:03:37;;;;;;;5.80;3.50;;;17.80;73.60;;;;;;5054912;28;20037;-84
2021/08/13 04:06:03;;;;;;;7.40;3.45;;;17.80;73.60;;;;;;5054931;28;20090;-83
2021/08/13 04:08:29;;;;;;;3.60;2.60;;;17.90;73.60;;;;;;5055255;28;20036;-83
2021/08/13 04:10:54;;;;;;;5.63;3.45;;;17.90;73.40;;;;;;5037271;28;20021;-84
2021/08/13 04:13:20;;;;;;;5.45;3.35;;;18.00;73.30;;;;;;5036466;28;20029;-84
2021/08/13 04:15:46;;;;;;;6.75;3.72;;;18.10;73.30;;;;;;5036674;28;20045;-84
2021/08/13 04:18:12;;;;;;;5.50;3.28;;;18.10;73.20;;;;;;5054640;28;20111;-84
2021/08/13 04:20:38;;;;;;;4.90;3.55;;;18.10;73.00;;;;;;5054319;28;20565;-84
2021/08/13 04:23:04;;;;;;;5.50;3.30;;;18.20;72.90;;;;;;5036644;28;20072;-82
2021/08/13 04:25:30;;;;;;;5.22;3.25;;;18.20;72.90;;;;;;5036574;28;20033;-83
2021/08/13 04:27:56;;;;;;;6.65;3.00;;;18.30;72.70;;;;;;5036627;28;20025;-83
2021/08/13 04:30:23;;;;;;;5.93;3.22;;;18.40;72.50;;;;;;5054259;28;20028;-83
2021/08/13 04:32:49;;;;;;;4.90;3.20;;;18.40;72.50;;;;;;5036473;28;20060;-82
2021/08/13 04:35:14;;;;;;;4.28;3.00;;;18.40;72.40;;;;;;5035839;28;20032;-83
2021/08/13 04:37:40;;;;;;;5.75;3.47;;;18.50;72.30;;;;;;5035951;28;20029;-82
2021/08/13 04:40:06;;;;;;;5.55;3.50;;;18.60;72.10;;;;;;5053937;28;20025;-82
2021/08/13 04:42:32;;;;;;;5.88;3.08;;;18.70;71.80;;;;;;5036361;28;20030;-84
2021/08/13 04:44:58;;;;;;;6.75;3.20;;;18.70;71.70;;;;;;5035568;28;20052;-84
2021/08/13 04:47:23;;;;;;;4.10;3.03;;;18.80;71.40;;;;;;5053650;28;20029;-84
2021/08/13 04:49:50;;;;;;;3.70;2.95;;;18.90;71.40;;;;;;5036218;28;20024;-84
2021/08/13 04:52:18;;;;;;;4.60;3.00;;;19.00;71.40;;;;;;5053904;28;20048;-84
2021/08/13 04:54:48;;;;;;;4.00;3.00;;;19.10;71.30;;;;;;5037057;28;20033;-83
2021/08/13 04:57:15;;;;;;;4.22;3.10;;;19.20;71.00;;;;;;5036400;28;20379;-84
2021/08/13 04:59:41;;;;;;;4.30;2.97;;;19.20;70.80;;;;;;5053633;28;20032;-84
2021/08/13 05:02:06;;;;;;;5.15;3.03;;;19.30;70.90;;;;;;5053236;28;20387;-85
2021/08/13 05:04:32;;;;;;;4.40;2.70;;;19.40;70.50;;;;;;5053443;28;20041;-84
2021/08/13 05:06:57;;;;;;;4.95;3.28;;;19.50;70.30;;;;;;5053102;28;20480;-83
2021/08/13 05:09:24;;;;;;;6.70;3.22;;;19.60;70.10;;;;;;5053834;28;20025;-84
2021/08/13 05:11:50;;;;;;;5.32;3.42;;;19.60;69.90;;;;;;5053354;28;20055;-84
2021/08/13 05:14:16;;;;;;;7.05;2.90;;;19.70;69.70;;;;;;5031636;28;20081;-86
2021/08/13 05:16:41;;;;;;;5.22;2.72;;;19.80;69.60;;;;;;5032242;28;20032;-84
2021/08/13 05:19:07;;;;;;;4.97;2.70;;;19.90;69.40;;;;;;5033574;28;20029;-83
2021/08/13 05:21:39;;;;;;;4.57;3.00;;;20.00;69.20;;;;;;5033879;28;20032;-84
2021/08/13 05:24:06;;;;;;;4.28;2.78;;;20.00;68.80;;;;;;5033469;28;20177;-85
2021/08/13 05:26:32;;;;;;;3.90;2.80;;;20.10;69.10;;;;;;5032879;28;20076;-84
2021/08/13 05:28:58;;;;;;;4.32;2.85;;;20.20;68.90;;;;;;5033696;28;20032;-85
2021/08/13 05:31:25;;;;;;;6.00;3.15;;;20.30;69.00;;;;;;5033676;28;20029;-85
2021/08/13 05:33:51;;;;;;;4.03;2.80;;;20.50;68.60;;;;;;5032104;28;20477;-85
2021/08/13 05:36:17;;;;;;;3.90;2.80;;;20.60;68.40;;;;;;5033517;28;20041;-86
2021/08/13 05:38:43;;;;;;;4.40;2.95;;;20.60;67.90;;;;;;5033411;28;20021;-85
2021/08/13 05:41:09;;;;;;;4.50;3.30;;;20.70;67.70;;;;;;5031904;28;20033;-85
2021/08/13 05:43:35;;;;;;;3.97;2.97;;;20.70;67.60;;;;;;5035980;28;20232;-85
2021/08/13 05:46:00;;;;;;;3.75;2.78;;;20.80;67.50;;;;;;5035806;28;20380;-85
2021/08/13 05:48:27;;;;;;;10.43;6.30;;;20.80;67.40;;;;;;5037408;28;20032;-85
2021/08/13 05:50:53;;;;;;;20.45;16.95;;;20.80;67.20;;;;;;5036894;28;20037;-85
2021/08/13 05:53:19;;;;;;;12.85;10.50;;;20.90;67.10;;;;;;5036320;28;20479;-84
2021/08/13 05:55:44;;;;;;;9.57;7.90;;;20.90;67.20;;;;;;5036678;28;20458;-84
2021/08/13 05:58:10;;;;;;;9.48;6.00;;;21.00;67.20;;;;;;5036440;28;20424;-84
2021/08/13 06:00:36;;;;;;;7.18;5.20;;;21.00;67.10;;;;;;5037267;28;20038;-83
2021/08/13 06:03:03;;;;;;;6.80;4.60;;;21.10;67.10;;;;;;5037834;28;20053;-83
2021/08/13 06:05:29;;;;;;;6.93;3.97;;;21.10;66.70;;;;;;5037883;28;20150;-84
2021/08/13 06:07:55;;;;;;;5.18;3.78;;;21.10;66.40;;;;;;5038705;28;20033;-84
2021/08/13 06:10:21;;;;;;;4.70;3.38;;;21.20;66.60;;;;;;5037543;28;20043;-83
2021/08/13 06:12:47;;;;;;;4.85;3.30;;;21.20;66.50;;;;;;5037389;28;20422;-83
2021/08/13 06:15:14;;;;;;;4.45;3.10;;;21.20;66.30;;;;;;5035652;28;20088;-85
2021/08/13 06:17:41;;;;;;;5.70;3.92;;;21.30;66.20;;;;;;5035811;28;20029;-85
2021/08/13 06:20:08;;;;;;;6.68;5.35;;;21.40;66.10;;;;;;5026578;28;20025;-86
2021/08/13 06:22:37;;;;;;;6.57;4.90;;;21.50;66.10;;;;;;5034975;28;20428;-86
2021/08/13 06:25:04;;;;;;;5.78;4.07;;;21.50;65.90;;;;;;5034916;28;20178;-85
2021/08/13 06:27:30;;;;;;;5.57;4.03;;;21.60;65.70;;;;;;5036920;28;20055;-90
2021/08/13 06:29:56;;;;;;;12.75;9.23;;;21.60;65.70;;;;;;5036641;28;20103;-85
2021/08/13 06:32:21;;;;;;;11.05;8.23;;;21.70;65.60;;;;;;5036843;28;20025;-86
2021/08/13 06:34:47;;;;;;;7.93;5.97;;;21.90;65.60;;;;;;5036734;28;20084;-85
2021/08/13 06:37:13;;;;;;;6.93;4.47;;;22.00;65.40;;;;;;5036721;28;20064;-85
2021/08/13 06:39:38;;;;;;;5.80;3.95;;;22.10;65.20;;;;;;5035704;28;20537;-86
2021/08/13 06:42:05;;;;;;;5.82;3.70;;;22.10;64.90;;;;;;5036045;28;20460;-93
2021/08/13 06:44:31;;;;;;;4.75;3.38;;;22.20;64.70;;;;;;5036828;28;20399;-90
2021/08/13 06:46:59;;;;;;;5.03;3.20;;;22.20;64.50;;;;;;5036002;28;20116;-91
2021/08/13 06:49:25;;;;;;;81.78;57.33;;;22.30;64.60;;;;;;5035183;28;20037;-90
2021/08/13 06:51:51;;;;;;;82.65;63.45;;;22.30;64.40;;;;;;5037439;28;20033;-95
2021/08/13 06:54:19;;;;;;;39.15;28.42;;;22.40;64.20;;;;;;5035850;28;20120;-95
2021/08/13 06:56:45;;;;;;;19.15;14.68;;;22.50;63.90;;;;;;5037618;28;20495;-90
2021/08/13 06:59:11;;;;;;;11.43;8.38;;;22.50;63.90;;;;;;5036620;28;20026;-88
2021/08/13 07:01:36;;;;;;;8.50;6.30;;;22.60;63.80;;;;;;5034464;28;20047;-88
2021/08/13 07:04:02;;;;;;;7.95;4.38;;;22.60;63.60;;;;;;5034937;28;20071;-88
2021/08/13 07:06:28;;;;;;;5.72;3.80;;;22.60;63.60;;;;;;5036963;28;20029;-93
2021/08/13 07:08:55;;;;;;;5.05;2.90;;;22.60;63.40;;;;;;5035927;28;20025;-90
2021/08/13 07:11:20;;;;;;;12.52;11.05;;;22.70;63.30;;;;;;5035217;28;20112;-86
2021/08/13 07:13:47;;;;;;;7.65;6.50;;;22.80;63.30;;;;;;5041132;28;20048;-86
2021/08/13 07:16:12;;;;;;;7.43;5.22;;;22.90;63.20;;;;;;5038973;28;20021;-85
2021/08/13 07:18:38;;;;;;;8.20;4.47;;;23.10;63.00;;;;;;5038447;28;20459;-89
2021/08/13 07:21:04;;;;;;;6.57;4.20;;;23.30;62.60;;;;;;5055974;28;20033;-84
2021/08/13 07:23:30;;;;;;;5.75;3.65;;;23.50;62.50;;;;;;5054949;28;20452;-82
2021/08/13 07:25:55;;;;;;;5.22;3.50;;;23.70;62.00;;;;;;5054495;28;20025;-83
2021/08/13 07:28:21;;;;;;;7.63;4.00;;;23.80;61.60;;;;;;5036054;28;20060;-83
2021/08/13 07:30:49;;;;;;;5.05;3.42;;;24.00;61.30;;;;;;5055339;28;20033;-82
2021/08/13 07:33:14;;;;;;;5.75;3.50;;;24.10;61.10;;;;;;5052857;28;20060;-83
2021/08/13 07:35:40;;;;;;;5.68;3.28;;;24.20;60.80;;;;;;5051602;28;20460;-83
2021/08/13 07:38:06;;;;;;;5.03;3.28;;;24.30;60.90;;;;;;5032577;28;20051;-84
2021/08/13 07:40:32;;;;;;;5.15;3.55;;;24.40;60.80;;;;;;5032782;28;20087;-84
2021/08/13 07:42:57;;;;;;;3.55;2.58;;;24.40;60.40;;;;;;5052582;28;20056;-84
2021/08/13 07:45:23;;;;;;;4.38;2.83;;;24.50;60.20;;;;;;5034343;28;20112;-85
2021/08/13 07:47:49;;;;;;;5.07;3.30;;;24.60;60.20;;;;;;5052640;28;20021;-83
2021/08/13 07:50:15;;;;;;;5.68;3.05;;;24.70;60.00;;;;;;5052669;28;20029;-82
2021/08/13 07:52:41;;;;;;;4.75;3.03;;;24.90;59.80;;;;;;5054317;28;20513;-82
2021/08/13 07:55:07;;;;;;;6.15;3.45;;;25.00;59.40;;;;;;5055002;28;20032;-82
2021/08/13 07:57:32;;;;;;;4.50;3.20;;;25.10;59.00;;;;;;5055096;28;20530;-82
2021/08/13 07:59:58;;;;;;;4.95;2.90;;;25.20;58.70;;;;;;5037019;28;20074;-83
2021/08/13 08:02:24;;;;;;;5.72;2.70;;;25.20;59.10;;;;;;5054854;28;20041;-83
2021/08/13 08:04:49;;;;;;;3.60;2.50;;;25.40;60.00;;;;;;5054770;28;20040;-83
2021/08/13 08:07:15;;;;;;;3.63;2.67;;;25.70;59.50;;;;;;5036757;28;20036;-83
2021/08/13 08:09:41;;;;;;;3.22;2.30;;;25.80;59.00;;;;;;5036812;28;20390;-84
2021/08/13 08:12:07;;;;;;;4.68;2.65;;;26.10;59.60;;;;;;5036673;28;20033;-83
2021/08/13 08:14:33;;;;;;;5.65;2.95;;;26.60;60.10;;;;;;5033263;28;20053;-84
2021/08/13 08:16:59;;;;;;;5.72;2.60;;;27.10;58.80;;;;;;5034304;28;20032;-83
2021/08/13 08:19:25;;;;;;;4.20;2.70;;;27.50;57.70;;;;;;5034529;28;20025;-83
2021/08/13 08:21:51;;;;;;;4.30;2.50;;;28.00;56.50;;;;;;5033237;28;20068;-83
2021/08/13 08:24:17;;;;;;;5.80;2.75;;;28.40;55.40;;;;;;5033361;28;20038;-82
2021/08/13 08:26:43;;;;;;;3.75;2.70;;;28.80;54.30;;;;;;5033217;28;20061;-82
2021/08/13 08:29:09;;;;;;;3.70;2.47;;;29.10;53.50;;;;;;5032981;28;20032;-83
2021/08/13 08:31:34;;;;;;;3.90;2.80;;;29.30;53.10;;;;;;5034526;28;20033;-83
2021/08/13 08:34:00;;;;;;;4.32;2.75;;;29.50;52.30;;;;;;5034368;28;20029;-83
2021/08/13 08:36:26;;;;;;;4.38;2.65;;;29.80;51.80;;;;;;5034302;28;20116;-83
2021/08/13 08:38:52;;;;;;;7.50;2.90;;;30.20;51.20;;;;;;5032750;28;20053;-84
2021/08/13 08:41:18;;;;;;;3.58;2.53;;;30.50;50.20;;;;;;5033756;28;20472;-83
2021/08/13 08:43:43;;;;;;;4.68;2.50;;;30.60;49.30;;;;;;5034256;28;20462;-83
2021/08/13 08:46:12;;;;;;;4.00;2.60;;;30.90;48.80;;;;;;5033113;28;20530;-83
2021/08/13 08:48:39;;;;;;;5.85;2.60;;;31.10;48.60;;;;;;5032787;28;20079;-83
2021/08/13 08:51:06;;;;;;;4.25;2.65;;;31.20;47.60;;;;;;5032699;28;20123;-83
2021/08/13 08:53:34;;;;;;;4.65;3.00;;;31.30;46.70;;;;;;5033868;28;20036;-83
2021/08/13 08:56:00;;;;;;;4.25;2.97;;;31.50;46.20;;;;;;5033985;28;20025;-83
2021/08/13 08:58:32;;;;;;;3.83;2.78;;;31.60;45.50;;;;;;5032828;28;20036;-83
2021/08/13 09:00:59;;;;;;;3.75;2.63;;;31.80;44.90;;;;;;5032573;28;20029;-82
2021/08/13 09:03:25;;;;;;;3.53;2.85;;;31.80;44.20;;;;;;5034076;28;20095;-84
2021/08/13 09:05:51;;;;;;;3.47;2.60;;;31.80;44.30;;;;;;5032530;28;20039;-83
2021/08/13 09:08:20;;;;;;;3.90;2.70;;;31.90;44.30;;;;;;5034445;28;20026;-83
2021/08/13 09:10:46;;;;;;;4.75;2.47;;;32.10;44.00;;;;;;5033586;28;20029;-83
2021/08/13 09:13:12;;;;;;;3.03;2.30;;;32.20;43.70;;;;;;5033879;28;20108;-83
2021/08/13 09:15:40;;;;;;;6.68;3.50;;;32.40;43.50;;;;;;5050947;28;20091;-83
2021/08/13 09:18:16;;;;;;;7.88;3.90;;;32.50;43.00;;;;;;5035707;28;20376;-83
2021/08/13 09:21:03;;;;;;;6.53;3.30;;;32.30;42.10;;;;;;5035666;28;20083;-83
2021/08/13 09:23:42;;;;;;;4.82;3.20;;;31.80;42.50;;;;;;5035021;28;20182;-83
2021/08/13 09:26:21;;;;;;;5.43;3.47;;;31.00;42.50;;;;;;5035701;28;20025;-83
2021/08/13 09:28:59;;;;;;;3.30;2.58;;;30.50;44.00;;;;;;5053574;28;20147;-83
2021/08/13 09:31:35;;;;;;;4.43;2.88;;;30.50;44.40;;;;;;5053707;28;20087;-83
2021/08/13 09:34:10;;;;;;;4.80;2.83;;;30.70;44.00;;;;;;5035514;28;20035;-83
2021/08/13 09:36:56;;;;;;;3.67;2.60;;;31.10;43.60;;;;;;5053359;28;20483;-83
2021/08/13 09:39:31;;;;;;;3.50;2.60;;;31.30;41.10;;;;;;5035460;28;20403;-83
2021/08/13 09:42:01;;;;;;;3.35;2.50;;;31.30;41.50;;;;;;5035367;28;20075;-84
2021/08/13 09:44:38;;;;;;;3.65;2.45;;;31.30;42.00;;;;;;5053144;28;20082;-83
2021/08/13 09:47:07;;;;;;;2.90;2.22;;;31.40;42.30;;;;;;5053251;28;20056;-83
2021/08/13 09:49:38;;;;;;;2.77;2.13;;;31.60;42.70;;;;;;5035332;28;20025;-83
2021/08/13 09:52:13;;;;;;;3.42;2.33;;;31.90;42.40;;;;;;5053081;28;20028;-83
2021/08/13 09:54:39;;;;;;;2.70;2.33;;;32.20;42.00;;;;;;5034894;28;20091;-82
2021/08/13 09:57:13;;;;;;;2.85;2.25;;;32.50;41.50;;;;;;5053136;28;20048;-83
2021/08/13 09:59:57;;;;;;;5.32;2.70;;;32.70;41.00;;;;;;5053220;28;20029;-83
2021/08/13 10:02:23;;;;;;;3.35;2.22;;;32.90;40.80;;;;;;5053405;28;20033;-83
2021/08/13 10:04:48;;;;;;;2.28;1.92;;;33.00;40.60;;;;;;5053054;28;20434;-83
2021/08/13 10:07:23;;;;;;;2.22;2.03;;;33.20;40.00;;;;;;5053373;28;20113;-83
2021/08/13 10:09:50;;;;;;;3.13;2.45;;;33.30;39.20;;;;;;5035639;28;20035;-83
2021/08/13 10:12:15;;;;;;;2.72;2.20;;;33.10;38.90;;;;;;5035262;28;20532;-82
2021/08/13 10:14:45;;;;;;;4.10;2.35;;;33.20;39.20;;;;;;5035086;28;20120;-83
2021/08/13 10:17:19;;;;;;;3.20;2.30;;;33.30;39.10;;;;;;5019135;28;20055;-82
2021/08/13 10:19:51;;;;;;;5.57;2.25;;;33.40;37.70;;;;;;5052822;28;20036;-82
2021/08/13 10:22:21;;;;;;;2.92;2.38;;;33.30;38.80;;;;;;5052903;28;20025;-83
2021/08/13 10:25:05;;;;;;;4.70;2.47;;;33.60;39.10;;;;;;5053037;28;20135;-82
2021/08/13 10:27:34;;;;;;;2.63;2.03;;;33.90;37.00;;;;;;5035852;28;20029;-83
2021/08/13 10:30:00;;;;;;;2.78;2.22;;;34.10;38.70;;;;;;5056465;28;20051;-82
2021/08/13 10:32:26;;;;;;;2.30;2.00;;;34.40;38.40;;;;;;5056386;28;20460;-83
2021/08/13 10:34:51;;;;;;;2.63;2.22;;;34.60;38.10;;;;;;5056419;28;20099;-83
2021/08/13 10:37:20;;;;;;;2.97;2.40;;;34.80;37.70;;;;;;5038566;28;20029;-82
2021/08/13 10:39:47;;;;;;;;;;;35.00;37.20;;;;;;5056807;28;20044;-83
2021/08/13 10:42:21;;;;;;;2.33;2.13;;;34.70;36.00;;;;;;5056505;28;19904;-83
2021/08/13 10:45:09;;;;;;;3.03;2.35;;;35.00;36.60;;;;;;5038506;28;20055;-82
2021/08/13 10:47:41;;;;;;;2.40;2.20;;;35.20;35.50;;;;;;5056709;28;20028;-83
2021/08/13 10:50:08;;;;;;;2.70;2.20;;;35.20;36.90;;;;;;5038312;28;20036;-83
2021/08/13 10:52:39;;;;;;;2.78;2.20;;;35.10;36.80;;;;;;5038001;28;20029;-82
2021/08/13 10:55:06;;;;;;;2.30;2.10;;;35.10;37.00;;;;;;5056433;28;20029;-82
2021/08/13 10:57:50;;;;;;;2.20;1.92;;;35.20;36.90;;;;;;5037851;28;20024;-82
2021/08/13 11:00:16;;;;;;;5.63;2.20;;;35.30;35.60;;;;;;5055776;28;20047;-83
2021/08/13 11:03:20;;;;;;;3.47;2.10;;;35.30;36.80;;;;;;5055990;28;20025;-83
2021/08/13 11:05:54;;;;;;;3.35;2.10;;;35.50;34.70;;;;;;5037874;28;20111;-82
2021/08/13 11:08:21;;;;;;;3.63;2.17;;;35.60;36.10;;;;;;5056313;28;20021;-83
2021/08/13 11:10:49;;;;;;;2.22;2.03;;;35.60;35.70;;;;;;5056742;28;20029;-83
2021/08/13 11:13:19;;;;;;;2.83;2.15;;;35.60;35.90;;;;;;5056010;28;20024;-82
2021/08/13 11:15:47;;;;;;;3.97;1.90;;;35.50;35.70;;;;;;5038052;28;20056;-83
2021/08/13 11:18:36;;;;;;;3.08;2.10;;;35.40;36.00;;;;;;5056140;28;20071;-83
2021/08/13 11:21:09;;;;;;;2.78;2.13;;;35.40;35.20;;;;;;5055577;28;20419;-84
2021/08/13 11:23:58;;;;;;;3.30;2.10;;;35.30;36.00;;;;;;5037745;28;20082;-83
2021/08/13 11:26:58;;;;;;;3.08;2.00;;;35.40;34.80;;;;;;5055470;28;20120;-82
2021/08/13 11:29:30;;;;;;;5.93;2.33;;;35.50;35.20;;;;;;5037877;28;20028;-85
2021/08/13 11:31:57;;;;;;;50.30;40.90;;;35.50;35.40;;;;;;5033966;28;20037;-85
2021/08/13 11:34:51;;;;;;;88.47;80.03;;;35.50;35.60;;;;;;5035847;28;20021;-88
2021/08/13 11:37:34;;;;;;;27.70;25.00;;;35.60;33.90;;;;;;5036178;28;20037;-87
2021/08/13 11:40:00;;;;;;;11.15;10.05;;;35.60;34.80;;;;;;5016782;28;20029;-84
2021/08/13 11:42:34;;;;;;;5.93;5.32;;;35.70;35.70;;;;;;5037938;28;20025;-84
2021/08/13 11:45:08;;;;;;;3.50;3.00;;;35.90;35.50;;;;;;5050754;28;20029;-85
2021/08/13 11:47:35;;;;;;;6.78;2.40;;;36.10;34.60;;;;;;5037171;28;20115;-85
2021/08/13 11:50:08;;;;;;;3.22;2.60;;;36.10;34.70;;;;;;5054645;28;20074;-86
2021/08/13 11:52:36;;;;;;;2.55;2.22;;;35.90;34.10;;;;;;5037967;28;20025;-86
2021/08/13 11:55:23;;;;;;;5.85;2.22;;;35.90;34.60;;;;;;5038057;28;20124;-85
2021/08/13 11:57:59;;;;;;;2.53;2.13;;;35.90;33.50;;;;;;5028969;28;20455;-85
2021/08/13 12:00:27;;;;;;;2.97;2.13;;;35.90;34.00;;;;;;5038125;28;20029;-85
2021/08/13 12:03:05;;;;;;;2.58;2.00;;;35.90;34.60;;;;;;5037653;28;20068;-84
2021/08/13 12:05:33;;;;;;;3.83;2.17;;;36.10;34.20;;;;;;5037557;28;20037;-83
2021/08/13 12:08:02;;;;;;;2.47;1.98;;;36.20;34.40;;;;;;5036249;28;20025;-83
2021/08/13 12:10:28;;;;;;;2.88;2.38;;;36.30;34.30;;;;;;5035149;28;20101;-85
2021/08/13 12:12:55;;;;;;;2.40;2.20;;;36.50;34.40;;;;;;5035207;28;20545;-85
2021/08/13 12:15:29;;;;;;;3.65;2.20;;;36.70;34.00;;;;;;5035410;28;20120;-85
2021/08/13 12:17:55;;;;;;;2.25;1.98;;;36.70;32.80;;;;;;5031255;28;20229;-85
2021/08/13 12:20:21;;;;;;;1.92;1.83;;;36.60;33.30;;;;;;5052707;28;20210;-85
2021/08/13 12:22:47;;;;;;;2.53;1.88;;;36.40;33.70;;;;;;5035208;28;20408;-86
2021/08/13 12:25:14;;;;;;;2.30;2.10;;;36.50;34.00;;;;;;5050391;28;20036;-84
2021/08/13 12:27:42;;;;;;;3.97;2.28;;;36.50;34.10;;;;;;5035218;28;20387;-86
2021/08/13 12:30:16;;;;;;;3.53;2.00;;;36.50;33.80;;;;;;5034797;28;20052;-86
2021/08/13 12:32:43;;;;;;;3.17;2.05;;;36.60;33.20;;;;;;5053161;28;20424;-85
2021/08/13 12:35:12;;;;;;;2.40;2.20;;;36.60;33.50;;;;;;5034888;28;20491;-89
2021/08/13 12:37:40;;;;;;;41.75;38.33;;;36.70;33.50;;;;;;5038317;28;20028;-85
2021/08/13 12:40:10;;;;;;;20.27;18.33;;;36.80;33.30;;;;;;5032687;28;20029;-87
2021/08/13 12:42:38;;;;;;;7.78;6.55;;;36.90;33.20;;;;;;5032016;28;20017;-85
2021/08/13 12:45:08;;;;;;;4.22;3.33;;;37.00;33.10;;;;;;5034553;28;20024;-86
2021/08/13 12:47:38;;;;;;;4.05;2.40;;;37.30;32.90;;;;;;5032961;28;20414;-88
2021/08/13 12:50:39;;;;;;;2.85;2.28;;;37.40;33.00;;;;;;5017539;28;20034;-95
2021/08/13 12:53:38;;;;;;;3.80;2.10;;;37.60;31.70;;;;;;5030563;28;20036;-96